Casper, WY

1:12 PM MDT on July 25, 2014 (GMT -0600)
North of Casper, WY (KWYBARNU1) Elev 5276 ft | 42.91 °N, 106.35 °W | Change Station
Active Advisory: Fire Weather Warning

Current weather conditions updated 1 minute ago

Clear
Clear
95.5 °F
Feels Like 93 °F
N
2.9
Wind Variable Wind from North
Gusts 12.7 mph

Today is forecast to be nearly the same temperature as yesterday.

Today
High -- | Low -- °F
--% Chance of Precip.
Yesterday
High -- | Low -- °F
Precip. -- in
5:49 AM 8:33 PM
Waning Crescent, 1% visible
Pressure 29.75 in
Visibility 10.0 miles
Clouds Clear
Heat Index 93 °F
Dew Point 51 °F
Humidity 23%
Rainfall 0.00 in
Snow Depth 0 in
UV 12 out of 12
Pollen 7.60 out of 12
Air Quality Not available.
Flu Activity Not available.
METAR KCPR 251853Z 25016G22KT 10SM CLR 33/06 A3000 RMK AO2 SLP075 T03330056

More Conditions Fewer Conditions

Pressure 29.75 in
Visibility 10.0 miles
Clouds Clear
Heat Index 93 °F
Dew Point 51 °F
Humidity 23%
Rainfall 0.00 in
Snow Depth 0 in
UV 12 out of 12
Pollen 7.60 out of 12
Air Quality Not available.
Flu Activity Not available.
METAR KCPR 251853Z 25016G22KT 10SM CLR 33/06 A3000 RMK AO2 SLP075 T03330056

More Conditions Fewer Conditions

10-Day Weather Forecast

Almanac

Astronomy

Jul. 25, 2014 Rise Set
Actual Time 5:49 AM MDT 8:33 PM MDT
Civil Twilight 5:16 AM MDT 9:06 PM MDT
Nautical Twilight 4:35 AM MDT 9:47 PM MDT
Astronomical Twilight 3:47 AM MDT 10:34 PM MDT
Moon 4:52 AM MDT 7:30 PM MDT
Length of Visible Light 15h 49m
Length of Day
14h 43m
Tomorrow will be 1m 59s shorter.
Waning Crescent, 1% of the Moon is Illuminated
Today
Waning Crescent
Jul 26
New
Aug 3
First Quarter
Aug 10
Full
Aug 17
Last Quarter

Today's Extremes

State Highs State Lows

Community

WunderPhotos

Upload Photos

1,737,375 photos uploaded!

Nearby

Snow Depth

Station Depth Elevation
Casper Mountain 0 in 7850 ft
Grave Springs 0 in 8550 ft
Middle Powder 0 in 7760 ft
Townsend Creek 1 in 8700 ft
Cole Canyon 0 in 5910 ft

Earthquake Activity

City Distance Mag. Time & Date
No recent earthquake activity has been reported nearby.
Minimum magnitude displayed is 2.5.

Coastal Water Temperatures

Place Temperature
No Stations Reporting

Nearby Weather Stations

Station Location Temp. Heat Index Dew Point Humidity Wind Precip. Elev Updated Type
HADS NORTH PLATTE RIVER AT CASPER WY, Casper, WY 91 °F 87 °F - - North  at  - 0.00 in / hr 5100 ft 12:30 PM MDT MADIS
North of Casper, WY, Bar Nunn, WY 95.5 °F 93 °F 51 °F 23% North  at  2.9 mph 0.00 in / hr 5276 ft 1:10 PM MDT Normal
North of Rolling Hills WY, Glenrock, WY 87.0 °F 84 °F 48 °F 26% SE  at  5.0 mph 0.00 in / hr 5421 ft 1:12 PM MDT Rapid Fire
RAWS CASPER MOUNTAIN WY, Casper, WY 75 °F 77 °F 45 °F 35% SSW  at  11 mph 0.00 in / hr 7740 ft 11:52 AM MDT MADIS

Show More Stations Show Fewer Stations